CheckWX is a tool to help pilots better visualize weather data.  It is not intended as a substitute for an official pre-flight weather briefing.

06:34:44 UTC

KAVP TAF
Wilkes-Barre / Scranton International Airport
Wilkes-Barre/Scranton, Pennsylvania, USA
KAVP 310530Z 3106/0106 31005KT P6SM -SHRA OVC035 FM310700 VRB04KT P6SM OVC027 FM310900 VRB04KT P6SM OVC017 FM311700 VRB04KT P6SM OVC022 FM010400 00000KT P6SM BKN019

Mar-31@
06:00 UTC

Mar-31 @ 06:00 UTC

Mar-31@
07:00 UTC

Mar-31 @ 07:00 UTC

TAF KAVP 310530Z 3106/0106 31005KT P6SM -SHRA OVC035
Wind
  • 310° at 5 KTS
Conditions
Light Showers, Rain
Cloud Levels
  • Overcast at 3,500' AGL

Mar-31@
07:00 UTC

Mar-31 @ 07:00 UTC

Mar-31@
09:00 UTC

Mar-31 @ 09:00 UTC

FM310700 VRB04KT P6SM OVC027

From

From Standard forecast or significant change

Wind
  • Variable at 4 KTS
Cloud Levels
  • Overcast at 2,700' AGL

Mar-31@
09:00 UTC

Mar-31 @ 09:00 UTC

Mar-31@
17:00 UTC

Mar-31 @ 17:00 UTC

FM310900 VRB04KT P6SM OVC017

From

From Standard forecast or significant change

Wind
  • Variable at 4 KTS
Cloud Levels
  • Overcast at 1,700' AGL

Mar-31@
17:00 UTC

Mar-31 @ 17:00 UTC

Apr-1@
04:00 UTC

Apr-1 @ 04:00 UTC

FM311700 VRB04KT P6SM OVC022

From

From Standard forecast or significant change

Wind
  • Variable at 4 KTS
Cloud Levels
  • Overcast at 2,200' AGL

Apr-1@
04:00 UTC

Apr-1 @ 04:00 UTC

Apr-1@
06:00 UTC

Apr-1 @ 06:00 UTC

FM010400 00000KT P6SM BKN019

From

From Standard forecast or significant change

Cloud Levels
  • Broken at 1,900' AGL